Time;durP1;ratioP1;P1;durP2;ratioP2;P2;SDS_P1;SDS_P2;PMS_P1;PMS_P2;Temp;Humidity;BMP_temperature;BMP_pressure;BME280_temperature;BME280_humidity;BME280_pressure;Samples;Min_cycle;Max_cycle;Signal;HPM_P1;HPM_P2
2021/10/06 00:05:13;;;;;;;33.97;32.07;;;;;;;11.91;100.00;101158.64;1941040;74;32956;-67
2021/10/06 00:10:38;;;;;;;34.40;32.43;;;;;;;11.86;100.00;101163.67;1941180;74;33428;-67
2021/10/06 00:16:03;;;;;;;34.17;31.90;;;;;;;11.98;100.00;101185.63;1941213;74;33556;-72
2021/10/06 00:21:28;;;;;;;34.43;32.63;;;;;;;12.03;100.00;101188.36;1940940;74;32953;-72
2021/10/06 00:26:52;;;;;;;34.50;32.57;;;;;;;11.98;100.00;101191.19;1941087;74;33014;-67
2021/10/06 00:32:18;;;;;;;33.73;31.90;;;;;;;11.94;100.00;101172.01;1941289;74;32938;-72
2021/10/06 00:37:42;;;;;;;35.07;32.93;;;;;;;11.92;100.00;101170.05;1941218;74;33612;-68
2021/10/06 00:43:08;;;;;;;34.47;32.37;;;;;;;12.02;100.00;101190.34;1941199;74;33487;-72
2021/10/06 00:48:33;;;;;;;33.03;30.87;;;;;;;11.95;100.00;101197.31;1940990;74;32958;-72
2021/10/06 00:53:59;;;;;;;36.20;34.10;;;;;;;11.96;100.00;101203.16;1940955;74;32943;-72
2021/10/06 00:59:23;;;;;;;34.33;32.37;;;;;;;11.90;100.00;101201.50;1941253;74;32998;-67
2021/10/06 01:04:48;;;;;;;33.57;31.67;;;;;;;11.81;100.00;101206.83;1941300;74;32937;-67
2021/10/06 01:10:14;;;;;;;35.13;33.07;;;;;;;11.80;100.00;101212.98;1941001;74;32996;-72
2021/10/06 01:15:40;;;;;;;34.63;32.60;;;;;;;11.88;100.00;101215.73;1940987;74;33011;-72
2021/10/06 01:21:10;;;;;;;34.97;32.77;;;;;;;11.94;100.00;101234.64;1940995;74;33054;-72
2021/10/06 01:26:35;;;;;;;34.87;32.80;;;;;;;11.84;100.00;101241.91;1941102;74;32939;-73
2021/10/06 01:32:00;;;;;;;33.93;31.93;;;;;;;11.90;100.00;101242.70;1941145;74;32931;-72
2021/10/06 01:37:26;;;;;;;35.37;33.40;;;;;;;11.82;100.00;101253.04;1940985;74;33008;-72
2021/10/06 01:42:52;;;;;;;34.13;32.03;;;;;;;11.96;100.00;101256.05;1941145;74;33129;-68
2021/10/06 01:48:18;;;;;;;34.07;31.90;;;;;;;11.87;100.00;101261.38;1941064;74;33454;-67
2021/10/06 01:53:42;;;;;;;33.90;31.83;;;;;;;11.92;100.00;101257.74;1940954;74;32985;-67
2021/10/06 01:59:07;;;;;;;34.33;32.27;;;;;;;11.88;100.00;101263.05;1941023;74;33506;-73
2021/10/06 02:04:31;;;;;;;34.57;32.47;;;;;;;11.76;100.00;101271.73;1940868;74;32983;-67
2021/10/06 02:09:56;;;;;;;34.00;32.00;;;;;;;11.90;100.00;101273.87;1941060;74;32997;-68
2021/10/06 02:15:20;;;;;;;34.10;32.10;;;;;;;11.89;100.00;101269.45;1940804;74;33044;-67
2021/10/06 02:20:45;;;;;;;34.73;32.70;;;;;;;11.87;100.00;101278.08;1941132;74;33020;-68
2021/10/06 02:26:10;;;;;;;35.30;33.20;;;;;;;11.75;100.00;101294.27;1941060;74;33495;-72
2021/10/06 02:31:34;;;;;;;34.63;32.53;;;;;;;11.66;100.00;101295.92;1940950;74;32947;-67
2021/10/06 02:36:59;;;;;;;37.10;34.90;;;;;;;11.66;100.00;101300.93;1941012;74;33007;-68
2021/10/06 02:42:23;;;;;;;35.30;33.20;;;;;;;11.70;100.00;101304.81;1940996;74;32962;-72
2021/10/06 02:47:50;;;;;;;34.70;32.70;;;;;;;11.71;100.00;101312.61;1940914;74;32959;-67
2021/10/06 02:53:16;;;;;;;36.73;34.53;;;;;;;11.64;100.00;101312.88;1941127;74;33449;-67
2021/10/06 02:58:43;;;;;;;36.80;34.57;;;;;;;11.62;100.00;101310.95;1941044;74;32939;-72
2021/10/06 03:04:07;;;;;;;36.57;34.37;;;;;;;11.53;100.00;101312.64;1941101;74;33567;-72
2021/10/06 03:09:31;;;;;;;38.30;36.10;;;;;;;11.52;100.00;101319.30;1941105;74;33537;-68
2021/10/06 03:14:56;;;;;;;39.23;36.73;;;;;;;11.41;100.00;101320.44;1941022;74;33488;-67
2021/10/06 03:20:20;;;;;;;36.67;34.37;;;;;;;11.50;100.00;101344.36;1940932;74;32947;-72
2021/10/06 03:25:46;;;;;;;36.67;34.63;;;;;;;11.38;100.00;101344.07;1941143;74;33460;-72
2021/10/06 03:31:10;;;;;;;38.27;35.87;;;;;;;11.40;100.00;101358.55;1941089;74;33048;-67
2021/10/06 03:36:35;;;;;;;39.03;36.73;;;;;;;11.32;100.00;101359.66;1941044;74;33492;-72
2021/10/06 03:41:59;;;;;;;38.33;35.90;;;;;;;11.33;100.00;101369.13;1940899;74;32965;-72
2021/10/06 03:47:24;;;;;;;37.67;35.57;;;;;;;11.37;100.00;101392.49;1941245;74;33439;-72
2021/10/06 03:52:48;;;;;;;37.03;35.00;;;;;;;11.43;100.00;101391.91;1941061;74;33020;-72
2021/10/06 03:58:15;;;;;;;37.70;35.40;;;;;;;11.43;100.00;101407.22;1941107;74;32947;-72
2021/10/06 04:03:39;;;;;;;37.03;34.77;;;;;;;11.45;100.00;101417.52;1941084;74;32953;-71
2021/10/06 04:09:03;;;;;;;38.40;35.90;;;;;;;11.35;100.00;101428.62;1940889;74;33042;-67
2021/10/06 04:14:28;;;;;;;39.20;37.00;;;;;;;11.19;100.00;101437.52;1941167;74;33005;-67
2021/10/06 04:19:52;;;;;;;36.90;34.80;;;;;;;11.22;100.00;101434.73;1940892;74;33133;-67
2021/10/06 04:25:17;;;;;;;38.10;35.80;;;;;;;11.29;100.00;101450.06;1941071;74;33825;-67
2021/10/06 04:30:41;;;;;;;38.17;35.83;;;;;;;11.23;100.00;101448.91;1940963;74;33115;-67
2021/10/06 04:36:07;;;;;;;38.07;35.70;;;;;;;11.21;100.00;101463.67;1941165;74;33450;-67
2021/10/06 04:41:31;;;;;;;38.27;36.07;;;;;;;11.21;100.00;101472.81;1941269;74;33444;-72
2021/10/06 04:46:56;;;;;;;39.63;37.07;;;;;;;11.12;100.00;101481.99;1941022;74;33121;-67
2021/10/06 04:52:20;;;;;;;38.17;35.73;;;;;;;11.12;100.00;101492.56;1941303;74;33424;-67
2021/10/06 04:57:45;;;;;;;37.50;35.20;;;;;;;11.01;100.00;101496.40;1940992;74;32960;-73
2021/10/06 05:03:12;;;;;;;38.80;36.30;;;;;;;11.03;100.00;101514.20;1941016;74;33019;-66
2021/10/06 05:08:40;;;;;;;37.43;35.13;;;;;;;11.05;100.00;101520.31;1940925;74;32966;-72
2021/10/06 05:14:04;;;;;;;39.20;36.70;;;;;;;11.05;100.00;101536.45;1940923;74;32949;-72
2021/10/06 05:19:31;;;;;;;38.60;36.50;;;;;;;10.97;100.00;101545.31;1941303;74;33439;-67
2021/10/06 05:24:55;;;;;;;38.30;35.80;;;;;;;11.05;100.00;101553.67;1941129;74;33519;-67
2021/10/06 05:30:20;;;;;;;37.67;35.40;;;;;;;11.07;100.00;101542.59;1940959;74;32958;-67
2021/10/06 05:35:45;;;;;;;37.47;35.17;;;;;;;11.10;100.00;101553.16;1941168;74;33470;-68
2021/10/06 05:41:09;;;;;;;36.93;34.53;;;;;;;11.12;100.00;101564.86;1940952;74;33045;-67
2021/10/06 05:46:34;;;;;;;36.43;34.13;;;;;;;10.99;100.00;101572.30;1940953;74;32948;-73
2021/10/06 05:51:59;;;;;;;38.10;35.73;;;;;;;10.98;100.00;101567.84;1941150;74;33044;-68
2021/10/06 05:57:23;;;;;;;39.20;36.70;;;;;;;11.00;100.00;101577.28;1940912;74;33008;-68
2021/10/06 06:02:51;;;;;;;36.20;33.90;;;;;;;11.01;100.00;101590.92;1940982;74;33023;-68
2021/10/06 06:08:15;;;;;;;37.70;35.40;;;;;;;11.15;100.00;101605.17;1941171;74;33454;-72
2021/10/06 06:13:40;;;;;;;36.57;34.27;;;;;;;11.21;100.00;101615.23;1940980;74;32953;-72
2021/10/06 06:19:05;;;;;;;37.37;35.07;;;;;;;11.09;100.00;101621.53;1940925;74;32949;-71
2021/10/06 06:24:29;;;;;;;38.30;35.83;;;;;;;11.01;100.00;101631.78;1941109;74;33037;-69
2021/10/06 06:29:53;;;;;;;39.53;37.13;;;;;;;11.00;100.00;101632.33;1941038;74;33045;-73
2021/10/06 06:35:21;;;;;;;38.97;36.57;;;;;;;10.90;100.00;101658.69;1941060;74;32969;-69
2021/10/06 06:40:45;;;;;;;39.50;37.00;;;;;;;11.11;100.00;101670.22;1941162;74;32947;-74
2021/10/06 06:46:10;;;;;;;38.13;35.90;;;;;;;11.07;100.00;101684.38;1940901;74;32962;-69
2021/10/06 06:51:34;;;;;;;37.93;35.60;;;;;;;11.10;100.00;101706.62;1940906;74;33015;-68
2021/10/06 06:57:00;;;;;;;38.83;36.60;;;;;;;11.30;100.00;101726.22;1941100;74;33050;-68
2021/10/06 07:02:24;;;;;;;38.20;35.90;;;;;;;11.24;100.00;101735.11;1941057;74;33035;-67
2021/10/06 07:07:52;;;;;;;38.50;36.23;;;;;;;11.25;100.00;101738.73;1941021;74;33044;-73
2021/10/06 07:13:16;;;;;;;39.80;37.17;;;;;;;11.42;100.00;101734.64;1941148;74;33059;-68
2021/10/06 07:18:41;;;;;;;39.20;36.73;;;;;;;11.41;100.00;101734.92;1940988;74;33068;-68
2021/10/06 07:24:06;;;;;;;38.07;35.83;;;;;;;11.41;100.00;101748.84;1940930;74;32967;-74
2021/10/06 07:29:30;;;;;;;39.53;37.03;;;;;;;11.50;100.00;101763.92;1940946;74;33032;-68
2021/10/06 07:34:55;;;;;;;39.20;36.67;;;;;;;11.46;100.00;101769.73;1941254;74;33426;-73
2021/10/06 07:40:19;;;;;;;38.47;36.00;;;;;;;11.60;100.00;101764.50;1940931;74;33130;-68
2021/10/06 07:45:45;;;;;;;36.17;34.00;;;;;;;11.81;100.00;101763.53;1941189;74;32940;-68
2021/10/06 07:51:10;;;;;;;34.50;32.47;;;;;;;12.15;100.00;101771.75;1941018;74;32947;-76
2021/10/06 07:56:34;;;;;;;34.43;32.53;;;;;;;12.38;100.00;101783.52;1941273;74;33429;-72
2021/10/06 08:02:00;;;;;;;34.10;32.20;;;;;;;12.56;100.00;101767.14;1941119;74;32985;-72
2021/10/06 08:07:24;;;;;;;32.53;30.60;;;;;;;12.82;100.00;101785.28;1940928;74;32967;-75
2021/10/06 08:12:50;;;;;;;31.10;29.10;;;;;;;12.94;100.00;101792.81;1941031;74;33002;-72
2021/10/06 08:18:16;;;;;;;31.90;30.00;;;;;;;13.03;100.00;101805.09;1941356;74;32956;-67
2021/10/06 08:23:40;;;;;;;31.60;29.80;;;;;;;13.31;100.00;101822.69;1941200;74;32962;-72
2021/10/06 08:29:05;;;;;;;29.90;28.30;;;;;;;13.36;100.00;101824.64;1941137;74;32961;-72
2021/10/06 08:34:29;;;;;;;28.53;26.93;;;;;;;13.43;100.00;101819.08;1941054;74;32965;-72
2021/10/06 08:40:00;;;;;;;27.80;26.20;;;;;;;13.54;100.00;101810.12;1941038;74;33039;-74
2021/10/06 08:45:24;;;;;;;27.47;25.87;;;;;;;13.68;100.00;101820.98;1940994;74;32966;-76
2021/10/06 08:50:49;;;;;;;26.53;24.93;;;;;;;13.75;100.00;101819.28;1941210;74;33436;-74
2021/10/06 08:56:13;;;;;;;26.87;25.27;;;;;;;13.90;100.00;101842.45;1941077;74;32979;-74
2021/10/06 09:01:43;;;;;;;25.53;24.03;;;;;;;13.89;100.00;101849.14;1940999;74;33080;-68
2021/10/06 09:07:09;;;;;;;24.67;23.40;;;;;;;14.03;100.00;101849.39;1941191;74;33482;-76
2021/10/06 09:12:34;;;;;;;26.57;25.07;;;;;;;14.17;100.00;101858.83;1941103;74;32985;-68
2021/10/06 09:18:05;;;;;;;28.70;27.10;;;;;;;14.23;100.00;101866.08;1941281;74;32970;-76
2021/10/06 09:23:35;;;;;;;28.20;26.70;;;;;;;14.26;100.00;101864.11;1941123;74;33069;-72
2021/10/06 09:29:01;;;;;;;29.27;27.87;;;;;;;14.29;100.00;101879.48;1941276;74;33044;-76
2021/10/06 09:34:27;;;;;;;25.63;24.17;;;;;;;14.37;100.00;101894.30;1940959;74;33094;-67
2021/10/06 09:39:52;;;;;;;26.93;25.43;;;;;;;14.27;100.00;101890.94;1941133;74;33112;-68
2021/10/06 09:45:26;;;;;;;24.47;22.80;;;;;;;14.48;100.00;101895.92;1941266;74;33531;-68
2021/10/06 09:51:08;;;;;;;22.53;21.20;;;;;;;14.51;100.00;101890.59;1941340;74;33026;-68
2021/10/06 09:56:42;;;;;;;23.70;22.30;;;;;;;14.67;100.00;101897.52;1941254;74;32982;-73
2021/10/06 10:02:09;;;;;;;22.87;21.43;;;;;;;14.63;100.00;101908.45;1940959;74;32995;-75
2021/10/06 10:07:40;;;;;;;25.90;24.77;;;;;;;14.75;100.00;101908.95;1941297;74;33506;-72
2021/10/06 10:13:07;;;;;;;23.43;22.03;;;;;;;14.81;100.00;101911.14;1941277;74;33529;-72
2021/10/06 10:18:33;;;;;;;23.10;21.90;;;;;;;14.88;100.00;101917.27;1941341;74;32975;-66
2021/10/06 10:24:08;;;;;;;23.30;21.90;;;;;;;15.03;100.00;101928.36;1941092;74;33026;-75
2021/10/06 10:29:38;;;;;;;24.03;22.83;;;;;;;14.98;100.00;101927.83;1941066;74;32992;-73
2021/10/06 10:35:08;;;;;;;23.30;21.97;;;;;;;15.04;100.00;101937.03;1941066;74;33055;-73
2021/10/06 10:41:10;;;;;;;23.00;21.70;;;;;;;15.01;100.00;101951.61;1941293;74;32990;-72
2021/10/06 10:46:55;;;;;;;21.10;19.90;;;;;;;15.03;100.00;101939.55;1941311;74;33554;-72
2021/10/06 10:52:22;;;;;;;22.30;20.90;;;;;;;15.00;100.00;101956.93;1941037;74;32992;-68
2021/10/06 10:57:47;;;;;;;22.20;20.90;;;;;;;15.15;100.00;101955.42;1941187;74;33072;-72
2021/10/06 11:03:26;;;;;;;22.10;20.70;;;;;;;15.21;100.00;101965.48;1940975;74;33120;-73
2021/10/06 11:08:51;;;;;;;21.80;20.20;;;;;;;15.34;100.00;101977.44;1941260;74;33092;-75
2021/10/06 11:14:24;;;;;;;22.77;21.37;;;;;;;15.27;100.00;101980.30;1941230;74;33048;-75
2021/10/06 11:20:02;;;;;;;21.23;19.87;;;;;;;15.38;100.00;101995.89;1941156;74;33469;-72
2021/10/06 11:25:43;;;;;;;21.97;20.73;;;;;;;15.58;100.00;101997.17;1941136;74;33044;-73
2021/10/06 11:31:09;;;;;;;21.57;20.17;;;;;;;15.69;100.00;102001.59;1941407;74;33679;-68
2021/10/06 11:36:35;;;;;;;18.60;17.60;;;;;;;15.91;100.00;102008.15;1941158;74;33455;-74
2021/10/06 11:42:02;;;;;;;19.03;17.87;;;;;;;15.92;100.00;101996.63;1941288;74;33118;-68
2021/10/06 11:47:28;;;;;;;18.87;17.63;;;;;;;15.96;100.00;102000.27;1940992;74;32988;-74
2021/10/06 11:52:58;;;;;;;17.73;16.53;;;;;;;16.19;100.00;101986.86;1941326;74;33564;-72
2021/10/06 11:58:35;;;;;;;19.77;18.77;;;;;;;16.15;100.00;101999.23;1941239;74;33517;-72
2021/10/06 12:04:14;;;;;;;20.20;18.90;;;;;;;15.90;100.00;102020.48;1941187;74;33101;-72
2021/10/06 12:09:41;;;;;;;19.50;18.40;;;;;;;15.74;100.00;102025.94;1941279;74;33563;-72
2021/10/06 12:15:11;;;;;;;19.90;18.70;;;;;;;15.80;100.00;102022.80;1941076;74;33493;-72
2021/10/06 12:20:40;;;;;;;17.47;16.50;;;;;;;16.04;100.00;102035.51;1940939;74;33153;-74
2021/10/06 12:26:05;;;;;;;17.83;16.80;;;;;;;16.31;100.00;102038.61;1941057;74;33085;-69
2021/10/06 12:31:45;;;;;;;17.93;16.93;;;;;;;16.17;100.00;102036.20;1941253;74;33009;-68
2021/10/06 12:37:15;;;;;;;18.50;17.57;;;;;;;16.14;100.00;102044.38;1941292;74;33102;-72
2021/10/06 12:42:40;;;;;;;19.73;18.67;;;;;;;16.31;100.00;102040.02;1941297;74;33054;-66
2021/10/06 12:48:09;;;;;;;18.40;17.60;;;;;;;16.40;100.00;102045.81;1941062;74;33011;-73
2021/10/06 12:53:35;;;;;;;18.80;17.80;;;;;;;16.57;100.00;102048.17;1941235;74;33517;-72
2021/10/06 12:59:02;;;;;;;16.37;15.53;;;;;;;16.68;100.00;102041.37;1941261;74;33633;-72
2021/10/06 13:04:37;;;;;;;17.40;16.60;;;;;;;16.63;100.00;102040.02;1941385;74;32993;-73
2021/10/06 13:10:02;;;;;;;15.53;14.83;;;;;;;16.66;100.00;102048.66;1941174;74;33584;-74
2021/10/06 13:15:26;;;;;;;16.07;15.13;;;;;;;16.80;100.00;102055.81;1941096;74;33000;-75
2021/10/06 13:20:51;;;;;;;15.50;14.80;;;;;;;16.91;100.00;102062.97;1941102;74;33704;-68
2021/10/06 13:26:38;;;;;;;15.80;15.00;;;;;;;16.91;100.00;102052.31;2010401;71;33411;-68
2021/10/06 13:32:05;;;;;;;14.60;13.70;;;;;;;16.98;100.00;102065.44;1941308;74;31607;-74
2021/10/06 13:37:30;;;;;;;14.60;13.90;;;;;;;16.95;100.00;102072.47;1941247;74;31091;-72
2021/10/06 13:42:54;;;;;;;14.70;13.90;;;;;;;17.00;100.00;102087.02;1941076;74;33010;-76
2021/10/06 13:48:20;;;;;;;14.13;13.43;;;;;;;17.04;100.00;102084.72;1941165;74;33105;-73
2021/10/06 13:53:46;;;;;;;13.30;12.80;;;;;;;17.02;100.00;102086.16;1977672;72;33505;-73
2021/10/06 13:59:12;;;;;;;13.10;12.60;;;;;;;16.88;100.00;102095.02;1941162;74;33573;-77
2021/10/06 14:04:37;;;;;;;12.77;12.27;;;;;;;16.68;100.00;102102.53;1940936;74;32959;-74
2021/10/06 14:10:01;;;;;;;14.73;14.03;;;;;;;16.82;100.00;102099.27;1940963;74;33031;-68
2021/10/06 14:15:46;;;;;;;14.83;14.03;;;;;;;17.14;100.00;102089.38;2009753;71;32963;-76
2021/10/06 14:21:12;;;;;;;14.37;13.57;;;;;;;17.13;100.00;102090.52;1941082;74;33055;-76
2021/10/06 14:26:36;;;;;;;13.03;12.43;;;;;;;16.88;100.00;102107.08;1941152;74;32954;-76
2021/10/06 14:32:01;;;;;;;12.80;12.20;;;;;;;16.96;100.00;102116.82;1941164;74;33616;-76
2021/10/06 14:37:26;;;;;;;12.97;12.37;;;;;;;17.38;100.00;102117.44;1941400;74;33537;-75
2021/10/06 14:42:56;;;;;;;13.93;13.23;;;;;;;17.43;100.00;102104.17;1941299;74;31090;-74
2021/10/06 14:48:21;;;;;;;13.20;12.50;;;;;;;17.67;100.00;102113.42;1941297;74;33179;-73
2021/10/06 14:53:47;;;;;;;12.57;11.93;;;;;;;17.48;100.00;102125.18;1941184;74;33141;-73
2021/10/06 14:59:12;;;;;;;11.33;10.83;;;;;;;17.38;100.00;102125.30;1941305;74;33625;-72
2021/10/06 15:04:37;;;;;;;12.00;11.40;;;;;;;17.21;100.00;102138.43;1941060;74;33048;-73
2021/10/06 15:10:02;;;;;;;13.13;12.33;;;;;;;17.33;100.00;102138.00;1941267;74;32993;-72
2021/10/06 15:15:28;;;;;;;12.70;12.00;;;;;;;17.43;100.00;102146.88;1941127;74;31080;-76
2021/10/06 15:20:53;;;;;;;13.17;12.47;;;;;;;17.39;100.00;102141.59;1941071;74;31129;-73
2021/10/06 15:26:17;;;;;;;12.27;11.77;;;;;;;17.31;100.00;102138.88;1940998;74;33126;-68
2021/10/06 15:31:42;;;;;;;13.43;12.73;;;;;;;17.37;100.00;102137.66;1941186;74;31567;-76
2021/10/06 15:37:07;;;;;;;11.90;11.40;;;;;;;17.46;100.00;102137.84;1941277;74;31529;-72
2021/10/06 15:42:33;;;;;;;11.83;11.33;;;;;;;17.44;100.00;102156.98;1941297;74;31279;-75
2021/10/06 15:47:59;;;;;;;12.83;12.03;;;;;;;17.18;100.00;102147.45;1941360;74;33589;-68
2021/10/06 15:53:24;;;;;;;12.67;12.10;;;;;;;16.99;100.00;102156.92;1941155;74;31093;-72
2021/10/06 15:58:49;;;;;;;13.93;13.13;;;;;;;16.84;100.00;102150.91;1941317;74;33571;-73
2021/10/06 16:04:15;;;;;;;14.10;13.40;;;;;;;16.86;100.00;102171.08;1941120;74;31089;-72
2021/10/06 16:09:42;;;;;;;13.80;13.10;;;;;;;16.73;100.00;102167.00;1941355;74;33014;-72
2021/10/06 16:15:15;;;;;;;13.73;13.13;;;;;;;16.70;100.00;102174.61;1941349;74;31236;-75
2021/10/06 16:20:40;;;;;;;13.70;13.00;;;;;;;16.72;100.00;102173.77;1941222;74;31639;-75
2021/10/06 16:26:04;;;;;;;13.13;12.53;;;;;;;16.82;100.00;102186.84;1941349;74;33021;-72
2021/10/06 16:31:29;;;;;;;14.23;13.43;;;;;;;16.74;100.00;102201.52;1941285;74;33529;-72
2021/10/06 16:36:54;;;;;;;15.87;15.17;;;;;;;16.52;100.00;102213.16;1941286;74;33617;-73
2021/10/06 16:42:18;;;;;;;14.77;14.17;;;;;;;16.50;100.00;102207.58;1941082;74;31159;-67
2021/10/06 16:47:43;;;;;;;15.70;15.00;;;;;;;16.94;100.00;102193.48;1941143;74;31633;-66
2021/10/06 16:53:07;;;;;;;17.60;16.60;;;;;;;16.13;100.00;102228.56;1941193;74;31064;-67
2021/10/06 16:58:32;;;;;;;17.20;16.20;;;;;;;16.07;100.00;102231.13;1941071;74;31147;-75
2021/10/06 17:03:57;;;;;;;17.30;16.27;;;;;;;15.97;100.00;102249.39;1917423;71;93722;-73
2021/10/06 17:09:22;;;;;;;17.27;16.47;;;;;;;15.91;100.00;102246.36;1940903;74;33083;-73
2021/10/06 17:14:47;;;;;;;20.40;19.30;;;;;;;15.74;100.00;102258.47;1940924;74;33027;-73
2021/10/06 17:20:13;;;;;;;23.53;22.23;;;;;;;15.48;100.00;102264.13;1941173;74;33049;-74
2021/10/06 17:25:38;;;;;;;29.43;27.73;;;;;;;15.33;100.00;102271.14;1941034;74;33096;-73
2021/10/06 17:31:09;;;;;;;40.33;38.03;;;;;;;14.82;100.00;102287.13;1941154;74;33534;-73
2021/10/06 17:36:38;;;;;;;39.77;37.23;;;;;;;14.74;100.00;102291.88;1940978;74;32966;-73
2021/10/06 17:42:03;;;;;;;40.03;37.63;;;;;;;14.56;100.00;102298.84;1941187;74;33525;-73
2021/10/06 17:47:28;;;;;;;40.90;38.40;;;;;;;14.35;100.00;102306.02;1940960;74;32996;-73
2021/10/06 17:52:54;;;;;;;44.70;41.70;;;;;;;14.43;100.00;102323.12;1941130;74;33500;-75
2021/10/06 17:58:19;;;;;;;42.07;39.40;;;;;;;14.06;100.00;102324.65;1940873;74;33065;-73
2021/10/06 18:03:44;;;;;;;41.30;38.70;;;;;;;14.04;100.00;102340.83;1940922;74;33072;-73
2021/10/06 18:09:09;;;;;;;41.43;39.03;;;;;;;14.07;100.00;102355.68;1940921;74;33101;-73
2021/10/06 18:14:34;;;;;;;41.40;38.73;;;;;;;13.86;100.00;102356.66;1940892;74;33064;-73
2021/10/06 18:19:59;;;;;;;41.30;38.80;;;;;;;13.56;100.00;102360.09;1941046;74;33098;-75
2021/10/06 18:25:23;;;;;;;42.40;39.77;;;;;;;13.28;100.00;102365.19;1941015;74;32998;-74
2021/10/06 18:30:48;;;;;;;40.40;37.73;;;;;;;13.46;100.00;102372.60;1941298;74;33072;-74
2021/10/06 18:36:14;;;;;;;39.60;37.17;;;;;;;13.58;100.00;102359.84;1940980;74;33605;-73
2021/10/06 18:41:40;;;;;;;41.00;38.07;;;;;;;13.43;100.00;102362.53;1941079;74;33055;-74
2021/10/06 18:47:07;;;;;;;42.30;39.60;;;;;;;13.10;100.00;102368.66;1941160;74;33499;-74
2021/10/06 18:52:34;;;;;;;41.90;39.20;;;;;;;13.04;100.00;102370.25;1940984;74;33045;-79
2021/10/06 18:58:05;;;;;;;42.77;39.77;;;;;;;12.98;100.00;102377.73;1941079;74;33483;-74
2021/10/06 19:03:30;;;;;;;43.07;40.17;;;;;;;12.87;100.00;102381.53;1941042;74;33023;-75
2021/10/06 19:08:54;;;;;;;45.63;42.43;;;;;;;12.92;100.00;102391.32;1940943;74;32991;-75
2021/10/06 19:14:20;;;;;;;44.43;41.10;;;;;;;13.32;100.00;102390.06;1941188;74;33549;-76
2021/10/06 19:19:45;;;;;;;41.30;38.40;;;;;;;13.54;100.00;102394.98;1941187;74;33482;-78
2021/10/06 19:25:12;;;;;;;43.60;40.50;;;;;;;13.28;100.00;102402.31;1941067;74;33540;-76
2021/10/06 19:30:38;;;;;;;40.37;37.80;;;;;;;13.39;100.00;102392.09;1941221;74;33074;-74
2021/10/06 19:36:03;;;;;;;42.33;39.63;;;;;;;13.30;100.00;102390.34;1940964;74;32975;-74
2021/10/06 19:41:48;;;;;;;40.63;37.93;;;;;;;13.43;100.00;102393.23;2009766;71;32961;-77
2021/10/06 19:47:13;;;;;;;42.87;39.83;;;;;;;13.41;100.00;102401.02;1941137;74;33057;-73
2021/10/06 19:52:39;;;;;;;41.50;38.80;;;;;;;13.49;100.00;102397.19;1941152;74;33105;-72
2021/10/06 19:58:06;;;;;;;40.97;38.27;;;;;;;13.46;100.00;102400.52;1941004;74;32998;-71
2021/10/06 20:03:30;;;;;;;42.27;39.47;;;;;;;13.28;100.00;102412.63;1940946;74;33096;-73
2021/10/06 20:08:55;;;;;;;41.67;38.87;;;;;;;13.34;100.00;102397.62;1941055;74;33085;-75
2021/10/06 20:14:21;;;;;;;42.33;39.60;;;;;;;13.33;100.00;102405.16;1941138;74;33001;-74
2021/10/06 20:19:48;;;;;;;43.00;40.10;;;;;;;13.31;100.00;102403.16;1941169;74;33550;-74
2021/10/06 20:25:15;;;;;;;41.70;39.00;;;;;;;13.31;100.00;102399.53;1940969;74;33185;-74
2021/10/06 20:30:40;;;;;;;44.13;41.27;;;;;;;13.26;100.00;102412.07;1941145;74;33004;-74
2021/10/06 20:36:16;;;;;;;47.10;43.97;;;;;;;13.34;100.00;102402.66;1940949;74;33075;-73
2021/10/06 20:41:32;;;;;;;47.60;44.50;;;;;;;13.27;100.00;102408.15;1940997;74;33008;-75
2021/10/06 20:46:56;;;;;;;48.10;44.90;;;;;;;13.29;100.00;102397.58;1941044;74;33069;-73
2021/10/06 20:52:21;;;;;;;43.83;40.47;;;;;;;13.15;100.00;102401.35;1940994;74;33260;-75
2021/10/06 20:57:47;;;;;;;41.67;38.73;;;;;;;13.32;100.00;102408.20;1940998;74;32987;-73
2021/10/06 21:03:12;;;;;;;42.40;39.53;;;;;;;13.17;100.00;102418.14;1941136;74;33052;-74
2021/10/06 21:08:37;;;;;;;43.40;40.20;;;;;;;13.07;100.00;102417.99;1940992;74;33090;-73
2021/10/06 21:14:01;;;;;;;46.07;42.90;;;;;;;13.01;100.00;102429.34;1940959;74;33092;-73
2021/10/06 21:19:29;;;;;;;47.57;44.67;;;;;;;12.90;100.00;102445.70;1940949;74;32978;-72
2021/10/06 21:24:54;;;;;;;47.23;44.30;;;;;;;12.99;100.00;102447.77;1940949;74;33055;-73
2021/10/06 21:30:20;;;;;;;48.93;45.93;;;;;;;12.94;100.00;102451.04;1940911;74;33053;-73
2021/10/06 21:35:44;;;;;;;52.10;49.07;;;;;;;12.76;100.00;102455.86;1941115;74;33180;-73
2021/10/06 21:41:09;;;;;;;50.50;47.43;;;;;;;12.59;100.00;102456.48;1941005;74;33033;-73
2021/10/06 21:46:34;;;;;;;49.90;46.80;;;;;;;12.51;100.00;102456.09;1941110;74;33199;-72
2021/10/06 21:51:58;;;;;;;49.37;46.37;;;;;;;12.58;100.00;102454.80;1941153;74;33517;-73
2021/10/06 21:57:23;;;;;;;47.97;45.17;;;;;;;12.67;100.00;102469.97;1941163;74;33020;-72
2021/10/06 22:02:49;;;;;;;48.47;45.07;;;;;;;12.68;100.00;102468.88;1940982;74;33018;-72
2021/10/06 22:08:14;;;;;;;48.53;45.57;;;;;;;12.58;100.00;102478.48;1940989;74;33063;-72
2021/10/06 22:13:39;;;;;;;49.60;46.50;;;;;;;12.70;100.00;102482.56;1941090;74;33488;-72
2021/10/06 22:19:03;;;;;;;47.33;44.43;;;;;;;12.77;100.00;102475.68;1941110;74;33049;-74
2021/10/06 22:24:28;;;;;;;47.40;44.40;;;;;;;12.91;100.00;102478.07;1941201;74;33544;-72
2021/10/06 22:29:59;;;;;;;45.40;42.50;;;;;;;12.91;100.00;102483.64;1941035;74;33096;-72
2021/10/06 22:35:24;;;;;;;47.00;44.03;;;;;;;12.91;100.00;102481.70;1940952;74;33085;-72
2021/10/06 22:40:48;;;;;;;46.03;43.33;;;;;;;13.08;100.00;102480.22;1941011;74;33136;-72
2021/10/06 22:46:11;;;;;;;42.80;40.10;;;;;;;13.09;100.00;102477.72;1940998;74;32990;-72
2021/10/06 22:51:36;;;;;;;46.90;44.10;;;;;;;13.06;100.00;102484.66;1941002;74;33576;-72
2021/10/06 22:57:03;;;;;;;45.03;42.03;;;;;;;13.07;100.00;102491.08;1940937;74;33078;-72
2021/10/06 23:02:27;;;;;;;43.60;40.70;;;;;;;13.13;100.00;102494.27;1941246;74;33003;-73
2021/10/06 23:07:55;;;;;;;43.97;41.17;;;;;;;13.28;100.00;102486.03;1941321;74;33071;-73
2021/10/06 23:13:22;;;;;;;41.90;39.20;;;;;;;13.26;100.00;102487.42;1941218;74;33504;-73
2021/10/06 23:18:48;;;;;;;42.50;39.80;;;;;;;13.16;100.00;102488.14;1941156;74;33509;-73
2021/10/06 23:24:13;;;;;;;43.90;41.03;;;;;;;13.37;100.00;102482.22;1941171;74;33599;-73
2021/10/06 23:29:37;;;;;;;43.90;41.00;;;;;;;13.26;100.00;102477.66;1941183;74;33497;-73
2021/10/06 23:35:05;;;;;;;45.37;42.47;;;;;;;13.23;100.00;102486.83;1941167;74;33556;-72
2021/10/06 23:40:29;;;;;;;44.10;41.30;;;;;;;13.29;100.00;102477.11;1940957;74;33011;-74
2021/10/06 23:45:53;;;;;;;43.40;40.33;;;;;;;13.25;100.00;102481.55;1941056;74;32984;-73
2021/10/06 23:51:19;;;;;;;43.30;40.30;;;;;;;13.30;100.00;102482.45;1941205;74;33461;-73
2021/10/06 23:56:43;;;;;;;44.17;41.27;;;;;;;13.33;100.00;102481.06;1940969;74;33086;-75
